Time;durP1;ratioP1;P1;durP2;ratioP2;P2;SDS_P1;SDS_P2;PMS_P1;PMS_P2;Temp;Humidity;BMP_temperature;BMP_pressure;BME280_temperature;BME280_humidity;BME280_pressure;Samples;Min_cycle;Max_cycle;Signal;HPM_P1;HPM_P2
2022/07/01 00:01:25;;;;;;;8.43;1.50;;;;;;;11.50;74.72;100623.16;5112774;28;20031;-47
2022/07/01 00:03:50;;;;;;;1.48;1.00;;;;;;;11.48;75.03;100619.00;5112421;28;20027;-47
2022/07/01 00:06:17;;;;;;;1.85;0.95;;;;;;;11.46;74.19;100615.66;5093718;28;20055;-47
2022/07/01 00:08:43;;;;;;;1.48;1.00;;;;;;;11.39;74.41;100600.31;5111016;28;20027;-47
2022/07/01 00:11:09;;;;;;;2.78;1.42;;;;;;;11.46;74.11;100605.75;5112005;28;20043;-47
2022/07/01 00:13:35;;;;;;;4.20;1.40;;;;;;;11.37;74.22;100605.06;5110866;28;20023;-46
2022/07/01 00:16:01;;;;;;;0.93;0.85;;;;;;;11.39;74.47;100613.78;5112419;28;20503;-46
2022/07/01 00:18:27;;;;;;;1.85;1.23;;;;;;;11.34;74.34;100607.31;5112099;28;20031;-47
2022/07/01 00:20:54;;;;;;;2.58;1.00;;;;;;;11.38;74.06;100617.47;5110304;28;20040;-46
2022/07/01 00:23:19;;;;;;;2.20;0.93;;;;;;;11.36;74.21;100610.63;5110641;28;20024;-47
2022/07/01 00:25:45;;;;;;;2.13;1.08;;;;;;;11.28;74.68;100600.03;5112052;28;20035;-47
2022/07/01 00:28:11;;;;;;;1.65;0.95;;;;;;;11.26;75.38;100608.28;5112537;28;20072;-47
2022/07/01 00:30:37;;;;;;;2.00;0.90;;;;;;;11.36;75.13;100624.09;5112159;28;20039;-49
2022/07/01 00:33:04;;;;;;;2.22;0.80;;;;;;;11.39;74.94;100627.22;5113107;27;20104;-46
2022/07/01 00:35:30;;;;;;;2.03;0.90;;;;;;;11.33;75.16;100609.19;5114838;28;20472;-48
2022/07/01 00:37:57;;;;;;;1.88;0.75;;;;;;;11.33;74.74;100609.19;5112973;28;20040;-50
2022/07/01 00:40:23;;;;;;;1.35;1.00;;;;;;;11.51;74.31;100626.69;5114191;28;20031;-51
2022/07/01 00:42:49;;;;;;;3.05;1.27;;;;;;;11.55;75.59;100627.94;5115184;28;20039;-47
2022/07/01 00:45:15;;;;;;;1.20;0.93;;;;;;;11.58;74.08;100617.63;5112971;28;20028;-47
2022/07/01 00:47:43;;;;;;;2.78;1.20;;;;;;;11.53;74.79;100609.31;5113332;28;20030;-47
2022/07/01 00:50:12;;;;;;;2.10;0.95;;;;;;;11.57;74.99;100618.66;5113456;28;20027;-50
2022/07/01 00:52:39;;;;;;;1.80;0.85;;;;;;;11.63;74.91;100619.75;5113184;28;20542;-51
2022/07/01 00:55:07;;;;;;;2.35;1.08;;;;;;;11.70;74.43;100623.31;5113018;28;20035;-49
2022/07/01 00:57:35;;;;;;;1.73;1.08;;;;;;;11.72;74.31;100618.56;5110188;28;20332;-48
2022/07/01 01:00:05;;;;;;;2.60;0.60;;;;;;;11.83;73.94;100606.41;5111959;28;20061;-48
2022/07/01 01:02:31;;;;;;;3.75;1.00;;;;;;;11.90;73.50;100611.84;5093533;28;20036;-47
2022/07/01 01:04:57;;;;;;;1.80;0.90;;;;;;;11.91;73.94;100605.44;5076196;28;20138;-46
2022/07/01 01:07:23;;;;;;;1.88;1.00;;;;;;;11.98;73.01;100609.00;5111487;28;20031;-47
2022/07/01 01:09:49;;;;;;;6.15;0.88;;;;;;;12.00;73.19;100605.09;5111458;28;20404;-47
2022/07/01 01:12:15;;;;;;;2.08;1.02;;;;;;;12.07;72.35;100604.28;5111107;28;20059;-47
2022/07/01 01:14:46;;;;;;;2.47;0.82;;;;;;;12.06;72.85;100599.94;5109829;28;20031;-47
2022/07/01 01:17:13;;;;;;;2.88;0.88;;;;;;;12.07;72.46;100593.50;5109615;28;20039;-47
2022/07/01 01:19:40;;;;;;;1.27;0.95;;;;;;;11.70;74.02;100547.97;5111039;28;20068;-48
2022/07/01 01:22:06;;;;;;;2.25;0.70;;;;;;;11.97;74.28;100594.69;5111447;28;20043;-47
2022/07/01 01:24:32;;;;;;;3.95;0.93;;;;;;;11.93;74.77;100603.38;5111613;28;20378;-46
2022/07/01 01:26:58;;;;;;;2.35;0.73;;;;;;;11.98;74.04;100607.16;5093659;28;20043;-47
2022/07/01 01:29:24;;;;;;;4.85;1.20;;;;;;;11.81;75.01;100590.47;5112111;27;20036;-47
2022/07/01 01:31:49;;;;;;;2.58;0.90;;;;;;;11.95;74.80;100604.00;5111762;28;20468;-47
2022/07/01 01:34:15;;;;;;;2.78;0.70;;;;;;;11.98;74.18;100612.53;5110089;28;20042;-47
2022/07/01 01:36:41;;;;;;;3.97;1.40;;;;;;;11.97;75.09;100615.41;5111391;28;20108;-47
2022/07/01 01:39:12;;;;;;;2.40;0.70;;;;;;;11.98;74.46;100615.22;5111017;28;20042;-50
2022/07/01 01:41:37;;;;;;;1.52;0.95;;;;;;;12.06;73.83;100611.53;5110993;28;20130;-48
2022/07/01 01:44:03;;;;;;;4.50;1.17;;;;;;;12.03;74.45;100620.00;5110793;28;20114;-46
2022/07/01 01:46:30;;;;;;;1.60;1.00;;;;;;;11.78;75.06;100587.34;5110556;28;20032;-46
2022/07/01 01:48:56;;;;;;;3.40;0.90;;;;;;;11.73;76.44;100598.69;5108733;28;20028;-48
2022/07/01 01:51:22;;;;;;;3.10;1.40;;;;;;;11.70;76.53;100603.63;5109079;28;20035;-46
2022/07/01 01:53:48;;;;;;;4.80;1.13;;;;;;;11.74;76.43;100603.03;5110513;28;20091;-47
2022/07/01 01:56:14;;;;;;;4.32;1.10;;;;;;;11.75;76.69;100604.69;5110393;28;20049;-46
2022/07/01 01:58:42;;;;;;;2.90;1.23;;;;;;;11.73;75.60;100584.41;5110346;28;20054;-47
2022/07/01 02:01:11;;;;;;;2.08;0.90;;;;;;;11.95;74.56;100609.41;5110398;28;20114;-47
2022/07/01 02:03:38;;;;;;;2.85;1.00;;;;;;;11.89;76.00;100604.78;5108646;28;20043;-48
2022/07/01 02:06:05;;;;;;;5.38;1.42;;;;;;;11.83;76.08;100611.81;5110224;28;20472;-47
2022/07/01 02:08:31;;;;;;;2.58;1.08;;;;;;;11.76;76.85;100602.84;5110373;28;20377;-47
2022/07/01 02:10:58;;;;;;;6.13;1.30;;;;;;;11.73;76.87;100612.13;5109932;28;20510;-48
2022/07/01 02:13:24;;;;;;;8.20;1.80;;;;;;;11.61;77.01;100592.22;5109971;28;20031;-51
2022/07/01 02:15:49;;;;;;;2.78;1.20;;;;;;;11.64;77.20;100607.94;5110413;28;20038;-50
2022/07/01 02:18:15;;;;;;;3.58;1.17;;;;;;;11.59;77.71;100605.84;5091496;28;20039;-52
2022/07/01 02:20:42;;;;;;;3.65;1.88;;;;;;;11.61;77.69;100600.28;5110228;28;20096;-52
2022/07/01 02:23:08;;;;;;;4.55;1.30;;;;;;;11.78;76.90;100617.75;5109944;28;20035;-51
2022/07/01 02:25:35;;;;;;;5.68;1.50;;;;;;;11.87;75.74;100615.75;5108731;28;20384;-47
2022/07/01 02:28:01;;;;;;;1.20;1.00;;;;;;;11.69;75.52;100575.06;5109746;28;20061;-48
2022/07/01 02:30:27;;;;;;;6.25;1.30;;;;;;;11.88;77.02;100617.41;5108285;28;20035;-50
2022/07/01 02:32:53;;;;;;;2.72;1.30;;;;;;;11.88;76.70;100619.25;5110093;28;20035;-47
2022/07/01 02:35:19;;;;;;;4.00;1.50;;;;;;;11.92;76.32;100625.94;5109811;28;20113;-48
2022/07/01 02:37:45;;;;;;;1.52;1.10;;;;;;;11.90;76.52;100617.22;5108214;28;20162;-47
2022/07/01 02:40:13;;;;;;;3.90;1.10;;;;;;;11.92;76.37;100624.09;5108049;28;20137;-47
2022/07/01 02:42:39;;;;;;;4.75;1.30;;;;;;;12.01;76.14;100627.44;5110462;28;20024;-47
2022/07/01 02:45:06;;;;;;;3.72;1.45;;;;;;;11.79;77.27;100610.50;5113690;28;20030;-48
2022/07/01 02:47:33;;;;;;;5.55;1.83;;;;;;;11.87;76.46;100613.06;5113357;28;20043;-49
2022/07/01 02:49:59;;;;;;;2.85;1.63;;;;;;;11.92;76.78;100624.09;5113509;28;20031;-48
2022/07/01 02:52:25;;;;;;;6.05;1.83;;;;;;;11.92;76.34;100631.31;5078468;28;20047;-45
2022/07/01 02:54:51;;;;;;;3.35;1.35;;;;;;;11.82;76.72;100618.19;5112139;28;20444;-46
2022/07/01 02:57:17;;;;;;;2.65;1.17;;;;;;;11.86;77.19;100629.41;5112095;28;20171;-47
2022/07/01 02:59:42;;;;;;;5.80;1.50;;;;;;;11.93;76.45;100631.13;5113306;27;20028;-48
2022/07/01 03:02:19;;;;;;;1.55;1.10;;;;;;;12.00;76.15;100647.31;5113466;28;20024;-47
2022/07/01 03:04:48;;;;;;;5.07;1.42;;;;;;;11.90;77.22;100644.97;5113989;28;20076;-47
2022/07/01 03:07:14;;;;;;;6.60;1.85;;;;;;;11.76;77.86;100635.97;5114721;28;20028;-48
2022/07/01 03:09:41;;;;;;;2.75;1.58;;;;;;;11.62;78.16;100636.91;5115428;27;20028;-45
2022/07/01 03:15:00;;;;;;;6.35;1.55;;;;;;;11.60;78.84;100641.66;5111793;28;20028;-48
2022/07/01 03:17:28;;;;;;;5.90;1.42;;;;;;;11.64;79.67;100661.75;5111406;28;20042;-51
2022/07/01 03:19:55;;;;;;;5.40;1.92;;;;;;;11.67;79.48;100657.84;5112680;28;20040;-48
2022/07/01 03:22:23;;;;;;;5.65;1.48;;;;;;;11.66;79.99;100656.16;5111194;28;20051;-48
2022/07/01 03:24:50;;;;;;;4.20;1.40;;;;;;;11.73;79.02;100660.56;5111281;28;20059;-49
2022/07/01 03:27:16;;;;;;;4.50;1.38;;;;;;;11.79;78.39;100659.78;5111011;28;20069;-46
2022/07/01 03:29:43;;;;;;;9.10;1.77;;;;;;;11.79;78.95;100667.88;5111258;28;20102;-50
2022/07/01 03:32:09;;;;;;;4.05;1.80;;;;;;;11.75;79.74;100671.97;5112955;28;20024;-50
2022/07/01 03:34:38;;;;;;;6.88;1.58;;;;;;;11.79;78.90;100667.88;5112436;28;20476;-48
2022/07/01 03:37:05;;;;;;;4.65;1.17;;;;;;;11.87;77.96;100666.03;5094555;28;20051;-50
2022/07/01 03:39:31;;;;;;;3.38;1.20;;;;;;;11.92;77.90;100666.31;5112779;28;20032;-49
2022/07/01 03:41:57;;;;;;;4.72;1.50;;;;;;;11.69;78.36;100629.72;5112787;28;20313;-51
2022/07/01 03:44:23;;;;;;;5.13;2.28;;;;;;;11.91;78.65;100668.19;5093986;28;20035;-51
2022/07/01 03:46:49;;;;;;;2.15;1.70;;;;;;;11.98;77.14;100665.53;5112260;28;20039;-49
2022/07/01 03:49:15;;;;;;;7.47;1.92;;;;;;;11.95;78.22;100674.81;5111041;28;20126;-49
2022/07/01 03:51:40;;;;;;;5.72;1.90;;;;;;;11.87;78.90;100669.56;5112306;28;20036;-47
2022/07/01 03:56:52;;;;;;;9.35;2.10;;;;;;;11.85;78.45;100658.19;5096856;28;20096;-47
2022/07/01 03:59:17;;;;;;;9.57;2.35;;;;;;;11.85;79.71;100670.78;5110550;28;20110;-47
2022/07/01 04:01:43;;;;;;;5.70;2.00;;;;;;;11.75;80.49;100666.56;5111999;28;20028;-47
2022/07/01 04:04:09;;;;;;;4.57;1.80;;;;;;;11.78;80.40;100676.13;5110634;28;20028;-51
2022/07/01 04:06:35;;;;;;;8.95;2.20;;;;;;;11.84;80.68;100682.59;5111943;28;20035;-48
2022/07/01 04:09:02;;;;;;;3.97;2.10;;;;;;;11.76;81.22;100679.00;5112085;28;20024;-50
2022/07/01 04:11:29;;;;;;;7.93;2.38;;;;;;;11.78;80.57;100673.44;5110017;28;20047;-48
2022/07/01 04:13:55;;;;;;;4.50;1.83;;;;;;;11.96;79.89;100691.78;5111477;28;20464;-51
2022/07/01 04:16:21;;;;;;;2.90;1.55;;;;;;;11.93;79.46;100684.94;5111764;28;20036;-47
2022/07/01 04:18:47;;;;;;;2.90;1.45;;;;;;;12.07;78.55;100693.09;5111351;28;20040;-49
2022/07/01 04:23:58;;;;;;;6.93;2.13;;;;;;;11.89;80.94;100690.91;5110399;28;20040;-46
2022/07/01 04:26:24;;;;;;;3.13;1.50;;;;;;;12.02;79.42;100699.09;5109853;28;20451;-46
2022/07/01 04:28:51;;;;;;;6.88;2.60;;;;;;;11.89;80.48;100683.66;5111543;28;20077;-47
2022/07/01 04:31:18;;;;;;;5.10;1.75;;;;;;;11.67;81.15;100653.28;5111336;28;20477;-47
2022/07/01 04:33:44;;;;;;;4.68;1.90;;;;;;;11.95;80.45;100690.16;5110139;28;20030;-47
2022/07/01 04:36:10;;;;;;;3.67;2.00;;;;;;;12.08;79.70;100701.00;5110081;28;20039;-46
2022/07/01 04:38:36;;;;;;;3.95;1.75;;;;;;;12.10;79.27;100693.53;5111548;28;20031;-47
2022/07/01 04:43:48;;;;;;;3.60;1.70;;;;;;;12.11;80.46;100702.44;5110286;28;20070;-47
2022/07/01 04:46:13;;;;;;;5.70;2.03;;;;;;;12.17;79.30;100707.88;5111375;27;20084;-46
2022/07/01 04:48:40;;;;;;;9.65;2.15;;;;;;;12.24;79.26;100713.31;5109839;28;20345;-47
2022/07/01 04:51:06;;;;;;;3.28;1.60;;;;;;;12.19;79.35;100705.00;5111287;28;20031;-47
2022/07/01 04:53:32;;;;;;;6.55;2.55;;;;;;;12.11;80.42;100703.28;5110048;28;20118;-48
2022/07/01 04:55:57;;;;;;;3.83;2.08;;;;;;;12.05;80.94;100704.06;5109918;28;20118;-47
2022/07/01 04:58:23;;;;;;;4.32;1.80;;;;;;;12.07;80.04;100690.41;5109513;28;20357;-47
2022/07/01 05:00:49;;;;;;;3.35;2.30;;;;;;;12.19;80.28;100702.31;5109502;28;20080;-47
2022/07/01 05:03:16;;;;;;;6.03;3.00;;;;;;;12.19;81.03;100710.38;5110843;28;20081;-47
2022/07/01 05:05:42;;;;;;;6.85;2.80;;;;;;;12.11;81.37;100708.69;5110588;28;20060;-47
2022/07/01 05:08:08;;;;;;;7.50;2.97;;;;;;;12.02;81.88;100701.78;5109182;28;20460;-48
2022/07/01 05:10:34;;;;;;;11.07;2.78;;;;;;;11.91;82.47;100691.56;5110281;28;20047;-46
2022/07/01 05:12:59;;;;;;;3.53;2.60;;;;;;;11.99;82.51;100711.06;5110707;28;20046;-48
2022/07/01 05:15:25;;;;;;;11.90;3.15;;;;;;;11.99;82.34;100705.69;5110371;28;20044;-49
2022/07/01 05:23:22;;;;;;;6.57;2.78;;;;;;;11.99;82.65;100694.09;5108777;28;20082;-47
2022/07/01 05:25:48;;;;;;;5.22;2.55;;;;;;;12.06;82.81;100710.31;5110053;28;20147;-47
2022/07/01 05:28:14;;;;;;;6.32;2.45;;;;;;;11.78;82.66;100651.91;5110602;28;20023;-47
2022/07/01 05:30:40;;;;;;;9.98;3.00;;;;;;;12.09;82.15;100691.91;5110033;28;20100;-49
2022/07/01 05:33:06;;;;;;;7.28;2.90;;;;;;;12.27;81.71;100704.81;5110358;28;20027;-48
2022/07/01 05:35:31;;;;;;;9.77;3.03;;;;;;;12.31;81.95;100713.34;5110192;28;20472;-48
2022/07/01 05:37:58;;;;;;;2.40;2.15;;;;;;;12.43;81.65;100710.94;5110052;28;20035;-47
2022/07/01 05:40:25;;;;;;;9.93;3.00;;;;;;;12.55;79.90;100695.84;5110107;28;20036;-47
2022/07/01 05:42:51;;;;;;;7.78;2.83;;;;;;;12.57;80.67;100701.84;5109944;28;20027;-47
2022/07/01 05:45:18;;;;;;;10.38;2.97;;;;;;;12.50;80.85;100692.91;5108489;28;20035;-49
2022/07/01 05:47:44;;;;;;;5.38;2.67;;;;;;;12.58;81.12;100708.91;5108734;28;20076;-49
2022/07/01 05:50:10;;;;;;;4.28;1.83;;;;;;;12.65;79.70;100707.09;5108237;28;20072;-48
2022/07/01 05:52:36;;;;;;;8.68;3.15;;;;;;;12.74;79.73;100715.81;5109948;28;20447;-49
2022/07/01 05:55:01;;;;;;;5.05;2.88;;;;;;;12.72;81.10;100712.47;5108372;28;20037;-48
2022/07/01 05:57:27;;;;;;;8.18;3.10;;;;;;;12.76;80.99;100705.69;5109472;28;20038;-48
2022/07/01 05:59:53;;;;;;;14.57;3.42;;;;;;;12.88;80.23;100704.03;5109788;28;20031;-51
2022/07/01 06:02:19;;;;;;;9.48;3.20;;;;;;;12.89;80.51;100705.72;5108510;28;20123;-49
2022/07/01 06:04:45;;;;;;;6.25;3.03;;;;;;;12.91;81.04;100710.91;5109713;28;20031;-48
2022/07/01 06:07:10;;;;;;;10.05;3.60;;;;;;;13.06;80.57;100721.53;5109838;28;20111;-47
2022/07/01 06:09:37;;;;;;;5.47;2.33;;;;;;;13.22;79.04;100710.34;5108428;28;20029;-46
2022/07/01 06:12:04;;;;;;;3.78;2.42;;;;;;;13.33;78.89;100719.72;5109747;28;20107;-47
2022/07/01 06:14:30;;;;;;;8.23;3.20;;;;;;;13.39;78.37;100724.31;5110124;28;20030;-46
2022/07/01 06:16:56;;;;;;;7.20;3.13;;;;;;;13.43;77.68;100724.72;5109501;28;20032;-48
2022/07/01 06:19:22;;;;;;;6.80;3.28;;;;;;;13.46;77.57;100724.31;5112388;28;20126;-47
2022/07/01 06:21:47;;;;;;;4.95;3.25;;;;;;;13.49;77.39;100723.91;5113930;28;20035;-48
2022/07/01 06:24:13;;;;;;;8.75;3.85;;;;;;;13.50;77.92;100723.69;5112204;28;20127;-47
2022/07/01 06:26:39;;;;;;;6.57;3.65;;;;;;;13.59;77.43;100728.88;5114129;27;20051;-46
2022/07/01 06:29:05;;;;;;;7.10;3.58;;;;;;;13.57;77.23;100722.88;5113505;28;20032;-47
2022/07/01 06:31:33;;;;;;;4.22;3.53;;;;;;;13.57;77.59;100726.38;5113912;28;20028;-46
2022/07/01 06:33:59;;;;;;;9.00;3.85;;;;;;;13.58;76.44;100728.06;5113817;28;20099;-48
2022/07/01 06:36:25;;;;;;;4.22;3.20;;;;;;;13.72;75.65;100735.13;5095449;28;20387;-47
2022/07/01 06:38:51;;;;;;;4.55;2.80;;;;;;;13.74;75.16;100730.34;5113480;28;20035;-47
2022/07/01 06:41:33;;;;;;;4.43;2.88;;;;;;;13.81;74.89;100729.50;5112448;28;20088;-47
2022/07/01 06:44:00;;;;;;;3.28;2.22;;;;;;;13.78;74.44;100727.22;5111751;28;20424;-47
2022/07/01 06:46:28;;;;;;;6.85;2.70;;;;;;;13.79;74.55;100732.41;5113598;28;20039;-48
2022/07/01 06:48:55;;;;;;;4.07;2.58;;;;;;;13.70;74.37;100717.47;5111532;28;20028;-48
2022/07/01 06:51:20;;;;;;;4.63;2.72;;;;;;;13.86;73.88;100724.31;5113879;28;20080;-47
2022/07/01 06:53:46;;;;;;;3.35;2.42;;;;;;;13.86;73.76;100716.22;5113201;28;20043;-47
2022/07/01 06:56:13;;;;;;;4.65;2.40;;;;;;;13.91;73.65;100732.59;5113014;28;20135;-48
2022/07/01 06:58:40;;;;;;;5.10;2.72;;;;;;;13.86;74.01;100733.25;5113142;28;20032;-47
2022/07/01 07:01:06;;;;;;;3.15;2.80;;;;;;;13.86;73.71;100730.53;5113152;28;20027;-47
2022/07/01 07:03:32;;;;;;;7.95;2.60;;;;;;;14.03;73.81;100744.44;5112712;28;20043;-48
2022/07/01 07:06:00;;;;;;;10.05;2.80;;;;;;;14.10;73.56;100737.16;5113324;27;20373;-50
2022/07/01 07:08:27;;;;;;;4.15;2.47;;;;;;;14.33;72.78;100743.97;5113302;28;20122;-48
2022/07/01 07:10:52;;;;;;;4.72;2.15;;;;;;;14.27;72.46;100728.63;5111569;28;20134;-47
2022/07/01 07:13:18;;;;;;;3.22;1.70;;;;;;;14.28;72.00;100724.84;5113430;28;20111;-48
2022/07/01 07:15:44;;;;;;;2.35;2.00;;;;;;;14.44;71.48;100745.19;5112810;28;20391;-48
2022/07/01 07:18:10;;;;;;;5.20;2.13;;;;;;;14.54;70.65;100748.25;5113106;28;20130;-48
2022/07/01 07:20:36;;;;;;;6.57;1.92;;;;;;;14.50;70.74;100741.63;5111086;28;20549;-49
2022/07/01 07:23:02;;;;;;;2.10;1.55;;;;;;;14.64;70.35;100745.16;5114278;28;20547;-47
2022/07/01 07:25:29;;;;;;;2.17;1.67;;;;;;;14.90;69.18;100755.88;5112642;28;20417;-47
2022/07/01 07:27:54;;;;;;;3.42;1.35;;;;;;;15.01;68.66;100751.66;5111919;28;20104;-48
2022/07/01 07:30:20;;;;;;;2.70;1.70;;;;;;;14.83;69.13;100757.75;5111274;28;20090;-47
2022/07/01 07:32:46;;;;;;;3.40;1.85;;;;;;;14.81;69.85;100759.84;5112314;27;20031;-46
2022/07/01 07:35:12;;;;;;;2.78;1.50;;;;;;;15.00;68.67;100766.22;5112303;28;20452;-47
2022/07/01 07:37:39;;;;;;;2.58;1.90;;;;;;;14.86;68.38;100762.75;5112484;28;20079;-49
2022/07/01 07:40:09;;;;;;;3.08;1.75;;;;;;;14.62;67.19;100701.31;5110801;28;20032;-49
2022/07/01 07:42:36;;;;;;;7.00;1.80;;;;;;;15.00;67.24;100755.41;5110957;28;20031;-48
2022/07/01 07:45:03;;;;;;;4.38;1.40;;;;;;;14.89;67.72;100764.19;5112483;28;20039;-49
2022/07/01 07:47:29;;;;;;;2.60;1.30;;;;;;;14.74;67.89;100755.53;5112234;28;20088;-48
2022/07/01 07:49:54;;;;;;;2.15;1.23;;;;;;;14.95;66.95;100763.34;5111875;28;20028;-50
2022/07/01 07:52:20;;;;;;;3.03;1.20;;;;;;;15.09;66.58;100762.22;5111891;27;20479;-47
2022/07/01 07:54:46;;;;;;;1.52;1.23;;;;;;;15.17;66.38;100757.59;5111854;28;20206;-47
2022/07/01 07:57:11;;;;;;;1.85;1.42;;;;;;;15.23;65.74;100760.28;5111798;28;20431;-48
2022/07/01 07:59:37;;;;;;;2.13;1.20;;;;;;;15.41;65.07;100753.28;5110181;28;20047;-47
2022/07/01 08:02:03;;;;;;;1.58;1.13;;;;;;;15.48;65.61;100764.91;5111930;28;20039;-47
2022/07/01 08:04:29;;;;;;;1.88;1.30;;;;;;;15.39;65.09;100745.38;5111436;28;20392;-46
2022/07/01 08:06:54;;;;;;;1.30;1.00;;;;;;;15.40;65.58;100757.88;5111761;28;20032;-48
2022/07/01 08:09:20;;;;;;;1.30;1.20;;;;;;;15.39;65.39;100741.84;5112704;28;20054;-47
2022/07/01 08:11:46;;;;;;;4.10;1.20;;;;;;;15.54;64.38;100738.84;5112366;28;20047;-47
